sensor_id;sensor_type;location;lat;lon;timestamp;P1;durP1;ratioP1;P2;durP2;ratioP2
22881;SDS011;11608;50.894;5.296;2023-03-24T00:01:50;30.08;;;27.90;;
22881;SDS011;11608;50.894;5.296;2023-03-24T00:04:16;30.38;;;28.08;;
22881;SDS011;11608;50.894;5.296;2023-03-24T00:06:45;29.75;;;27.67;;
22881;SDS011;11608;50.894;5.296;2023-03-24T00:09:13;29.58;;;27.38;;
22881;SDS011;11608;50.894;5.296;2023-03-24T00:11:40;29.60;;;27.48;;
22881;SDS011;11608;50.894;5.296;2023-03-24T00:14:06;29.95;;;27.77;;
22881;SDS011;11608;50.894;5.296;2023-03-24T00:16:36;29.02;;;26.83;;
22881;SDS011;11608;50.894;5.296;2023-03-24T00:19:05;30.20;;;28.02;;
22881;SDS011;11608;50.894;5.296;2023-03-24T00:21:44;29.80;;;27.60;;
22881;SDS011;11608;50.894;5.296;2023-03-24T00:24:12;30.02;;;27.80;;
22881;SDS011;11608;50.894;5.296;2023-03-24T00:26:39;30.45;;;28.15;;
22881;SDS011;11608;50.894;5.296;2023-03-24T00:29:07;30.50;;;28.27;;
22881;SDS011;11608;50.894;5.296;2023-03-24T00:31:37;31.17;;;29.00;;
22881;SDS011;11608;50.894;5.296;2023-03-24T00:34:04;29.85;;;27.65;;
22881;SDS011;11608;50.894;5.296;2023-03-24T00:36:33;30.50;;;28.20;;
22881;SDS011;11608;50.894;5.296;2023-03-24T00:39:00;31.20;;;29.00;;
22881;SDS011;11608;50.894;5.296;2023-03-24T00:41:26;31.08;;;28.77;;
22881;SDS011;11608;50.894;5.296;2023-03-24T00:43:54;30.83;;;28.63;;
22881;SDS011;11608;50.894;5.296;2023-03-24T00:46:23;31.73;;;29.42;;
22881;SDS011;11608;50.894;5.296;2023-03-24T00:48:56;30.83;;;28.63;;
22881;SDS011;11608;50.894;5.296;2023-03-24T00:51:27;30.50;;;28.20;;
22881;SDS011;11608;50.894;5.296;2023-03-24T00:53:53;31.23;;;28.85;;
22881;SDS011;11608;50.894;5.296;2023-03-24T00:56:32;31.17;;;28.88;;
22881;SDS011;11608;50.894;5.296;2023-03-24T00:59:00;30.42;;;28.23;;
22881;SDS011;11608;50.894;5.296;2023-03-24T01:01:27;31.00;;;28.70;;
22881;SDS011;11608;50.894;5.296;2023-03-24T01:03:56;30.92;;;28.52;;
22881;SDS011;11608;50.894;5.296;2023-03-24T01:06:24;30.75;;;28.45;;
22881;SDS011;11608;50.894;5.296;2023-03-24T01:08:51;31.63;;;29.17;;
22881;SDS011;11608;50.894;5.296;2023-03-24T01:11:20;31.23;;;28.83;;
22881;SDS011;11608;50.894;5.296;2023-03-24T01:13:48;32.25;;;29.85;;
22881;SDS011;11608;50.894;5.296;2023-03-24T01:16:14;32.78;;;30.35;;
22881;SDS011;11608;50.894;5.296;2023-03-24T01:18:40;31.17;;;28.77;;
22881;SDS011;11608;50.894;5.296;2023-03-24T01:21:09;29.88;;;27.50;;
22881;SDS011;11608;50.894;5.296;2023-03-24T01:23:38;32.25;;;29.85;;
22881;SDS011;11608;50.894;5.296;2023-03-24T01:26:09;31.42;;;29.00;;
22881;SDS011;11608;50.894;5.296;2023-03-24T01:28:35;31.30;;;28.95;;
22881;SDS011;11608;50.894;5.296;2023-03-24T01:31:10;32.88;;;30.48;;
22881;SDS011;11608;50.894;5.296;2023-03-24T01:33:38;32.28;;;30.00;;
22881;SDS011;11608;50.894;5.296;2023-03-24T01:36:07;31.95;;;29.55;;
22881;SDS011;11608;50.894;5.296;2023-03-24T01:38:34;30.83;;;28.48;;
22881;SDS011;11608;50.894;5.296;2023-03-24T01:41:00;30.25;;;28.05;;
22881;SDS011;11608;50.894;5.296;2023-03-24T01:43:28;28.95;;;26.77;;
22881;SDS011;11608;50.894;5.296;2023-03-24T01:48:30;30.27;;;28.05;;
22881;SDS011;11608;50.894;5.296;2023-03-24T01:51:21;30.65;;;28.42;;
22881;SDS011;11608;50.894;5.296;2023-03-24T01:56:20;30.90;;;28.60;;
22881;SDS011;11608;50.894;5.296;2023-03-24T01:58:48;30.23;;;28.02;;
22881;SDS011;11608;50.894;5.296;2023-03-24T02:01:15;31.13;;;28.13;;
22881;SDS011;11608;50.894;5.296;2023-03-24T02:03:44;30.35;;;28.17;;
22881;SDS011;11608;50.894;5.296;2023-03-24T02:06:16;29.73;;;27.63;;
22881;SDS011;11608;50.894;5.296;2023-03-24T02:11:09;30.20;;;27.92;;
22881;SDS011;11608;50.894;5.296;2023-03-24T02:13:35;31.77;;;29.40;;
22881;SDS011;11608;50.894;5.296;2023-03-24T02:18:39;30.52;;;28.23;;
22881;SDS011;11608;50.894;5.296;2023-03-24T02:21:17;30.30;;;28.10;;
22881;SDS011;11608;50.894;5.296;2023-03-24T02:28:48;28.63;;;26.52;;
22881;SDS011;11608;50.894;5.296;2023-03-24T02:44:28;29.77;;;27.50;;
22881;SDS011;11608;50.894;5.296;2023-03-24T02:47:00;28.83;;;26.63;;
22881;SDS011;11608;50.894;5.296;2023-03-24T02:49:29;29.27;;;27.08;;
22881;SDS011;11608;50.894;5.296;2023-03-24T02:59:42;31.02;;;28.65;;
22881;SDS011;11608;50.894;5.296;2023-03-24T03:02:24;31.02;;;28.70;;
22881;SDS011;11608;50.894;5.296;2023-03-24T03:05:12;29.38;;;27.17;;
22881;SDS011;11608;50.894;5.296;2023-03-24T03:07:43;29.00;;;26.60;;
22881;SDS011;11608;50.894;5.296;2023-03-24T03:10:14;28.63;;;26.52;;
22881;SDS011;11608;50.894;5.296;2023-03-24T03:12:44;28.05;;;25.92;;
22881;SDS011;11608;50.894;5.296;2023-03-24T03:15:21;28.00;;;26.00;;
22881;SDS011;11608;50.894;5.296;2023-03-24T03:18:00;28.73;;;26.63;;
22881;SDS011;11608;50.894;5.296;2023-03-24T03:20:30;28.38;;;26.40;;
22881;SDS011;11608;50.894;5.296;2023-03-24T03:23:05;28.20;;;26.10;;
22881;SDS011;11608;50.894;5.296;2023-03-24T03:25:38;28.08;;;26.08;;
22881;SDS011;11608;50.894;5.296;2023-03-24T03:28:06;28.73;;;26.67;;
22881;SDS011;11608;50.894;5.296;2023-03-24T03:30:49;28.45;;;26.45;;
22881;SDS011;11608;50.894;5.296;2023-03-24T03:33:21;28.38;;;26.25;;
22881;SDS011;11608;50.894;5.296;2023-03-24T03:36:05;29.38;;;27.30;;
22881;SDS011;11608;50.894;5.296;2023-03-24T03:41:05;27.48;;;25.50;;
22881;SDS011;11608;50.894;5.296;2023-03-24T03:43:32;26.73;;;24.60;;
22881;SDS011;11608;50.894;5.296;2023-03-24T03:46:01;26.75;;;24.85;;
22881;SDS011;11608;50.894;5.296;2023-03-24T03:48:33;25.27;;;23.35;;
22881;SDS011;11608;50.894;5.296;2023-03-24T03:50:59;25.80;;;23.80;;
22881;SDS011;11608;50.894;5.296;2023-03-24T03:53:27;26.85;;;24.85;;
22881;SDS011;11608;50.894;5.296;2023-03-24T03:55:55;25.95;;;24.10;;
22881;SDS011;11608;50.894;5.296;2023-03-24T03:58:26;27.55;;;25.05;;
22881;SDS011;11608;50.894;5.296;2023-03-24T04:00:53;27.55;;;25.55;;
22881;SDS011;11608;50.894;5.296;2023-03-24T04:05:53;27.05;;;24.85;;
22881;SDS011;11608;50.894;5.296;2023-03-24T04:11:17;27.73;;;25.52;;
22881;SDS011;11608;50.894;5.296;2023-03-24T04:14:35;26.80;;;24.98;;
22881;SDS011;11608;50.894;5.296;2023-03-24T04:19:21;28.25;;;26.13;;
22881;SDS011;11608;50.894;5.296;2023-03-24T04:22:38;27.90;;;25.98;;
22881;SDS011;11608;50.894;5.296;2023-03-24T04:24:47;27.60;;;25.55;;
22881;SDS011;11608;50.894;5.296;2023-03-24T04:30:30;29.40;;;27.10;;
22881;SDS011;11608;50.894;5.296;2023-03-24T04:32:58;27.85;;;25.75;;
22881;SDS011;11608;50.894;5.296;2023-03-24T04:35:26;27.98;;;25.75;;
22881;SDS011;11608;50.894;5.296;2023-03-24T04:37:59;27.73;;;25.80;;
22881;SDS011;11608;50.894;5.296;2023-03-24T04:40:28;28.40;;;26.30;;
22881;SDS011;11608;50.894;5.296;2023-03-24T04:42:57;30.52;;;27.90;;
22881;SDS011;11608;50.894;5.296;2023-03-24T04:45:24;30.85;;;28.50;;
22881;SDS011;11608;50.894;5.296;2023-03-24T04:47:51;29.50;;;26.88;;
22881;SDS011;11608;50.894;5.296;2023-03-24T04:50:35;30.30;;;28.05;;
22881;SDS011;11608;50.894;5.296;2023-03-24T04:53:11;29.45;;;27.23;;
22881;SDS011;11608;50.894;5.296;2023-03-24T04:58:18;27.85;;;25.77;;
22881;SDS011;11608;50.894;5.296;2023-03-24T05:00:48;27.50;;;25.40;;
22881;SDS011;11608;50.894;5.296;2023-03-24T05:03:16;28.20;;;25.83;;
22881;SDS011;11608;50.894;5.296;2023-03-24T05:05:43;29.02;;;26.63;;
22881;SDS011;11608;50.894;5.296;2023-03-24T05:08:09;29.15;;;26.95;;
22881;SDS011;11608;50.894;5.296;2023-03-24T05:10:36;27.50;;;25.15;;
22881;SDS011;11608;50.894;5.296;2023-03-24T05:13:11;30.05;;;27.55;;
22881;SDS011;11608;50.894;5.296;2023-03-24T05:15:40;29.35;;;26.80;;
22881;SDS011;11608;50.894;5.296;2023-03-24T05:18:06;28.58;;;26.20;;
22881;SDS011;11608;50.894;5.296;2023-03-24T05:20:35;28.73;;;26.55;;
22881;SDS011;11608;50.894;5.296;2023-03-24T05:23:03;31.27;;;28.42;;
22881;SDS011;11608;50.894;5.296;2023-03-24T05:25:29;31.73;;;28.90;;
22881;SDS011;11608;50.894;5.296;2023-03-24T05:27:58;29.15;;;26.85;;
22881;SDS011;11608;50.894;5.296;2023-03-24T05:30:24;30.65;;;27.83;;
22881;SDS011;11608;50.894;5.296;2023-03-24T05:32:53;28.17;;;25.77;;
22881;SDS011;11608;50.894;5.296;2023-03-24T05:35:21;28.33;;;26.02;;
22881;SDS011;11608;50.894;5.296;2023-03-24T05:37:51;28.58;;;26.00;;
22881;SDS011;11608;50.894;5.296;2023-03-24T05:40:17;28.42;;;26.13;;
22881;SDS011;11608;50.894;5.296;2023-03-24T05:42:43;28.27;;;25.90;;
22881;SDS011;11608;50.894;5.296;2023-03-24T05:45:09;29.50;;;26.90;;
22881;SDS011;11608;50.894;5.296;2023-03-24T05:47:36;29.88;;;27.17;;
22881;SDS011;11608;50.894;5.296;2023-03-24T05:50:02;28.35;;;25.80;;
22881;SDS011;11608;50.894;5.296;2023-03-24T05:52:36;26.95;;;24.52;;
22881;SDS011;11608;50.894;5.296;2023-03-24T05:55:02;27.75;;;25.55;;
22881;SDS011;11608;50.894;5.296;2023-03-24T05:57:28;27.58;;;25.27;;
22881;SDS011;11608;50.894;5.296;2023-03-24T05:59:58;27.67;;;25.27;;
22881;SDS011;11608;50.894;5.296;2023-03-24T06:02:27;28.20;;;25.83;;
22881;SDS011;11608;50.894;5.296;2023-03-24T06:04:54;29.35;;;26.80;;
22881;SDS011;11608;50.894;5.296;2023-03-24T06:07:21;27.70;;;25.60;;
22881;SDS011;11608;50.894;5.296;2023-03-24T06:09:51;28.75;;;25.98;;
22881;SDS011;11608;50.894;5.296;2023-03-24T06:12:17;27.80;;;25.40;;
22881;SDS011;11608;50.894;5.296;2023-03-24T06:14:45;26.40;;;24.27;;
22881;SDS011;11608;50.894;5.296;2023-03-24T06:17:11;27.08;;;24.58;;
22881;SDS011;11608;50.894;5.296;2023-03-24T06:19:43;27.40;;;25.00;;
22881;SDS011;11608;50.894;5.296;2023-03-24T06:22:13;27.75;;;25.25;;
22881;SDS011;11608;50.894;5.296;2023-03-24T06:24:42;26.67;;;24.17;;
22881;SDS011;11608;50.894;5.296;2023-03-24T06:27:11;25.25;;;23.30;;
22881;SDS011;11608;50.894;5.296;2023-03-24T06:29:38;26.83;;;24.38;;
22881;SDS011;11608;50.894;5.296;2023-03-24T06:32:07;24.58;;;22.38;;
22881;SDS011;11608;50.894;5.296;2023-03-24T06:34:33;25.33;;;23.10;;
22881;SDS011;11608;50.894;5.296;2023-03-24T06:37:02;26.00;;;22.90;;
22881;SDS011;11608;50.894;5.296;2023-03-24T06:39:29;24.70;;;22.50;;
22881;SDS011;11608;50.894;5.296;2023-03-24T06:41:55;25.65;;;23.25;;
22881;SDS011;11608;50.894;5.296;2023-03-24T06:44:21;25.48;;;22.85;;
22881;SDS011;11608;50.894;5.296;2023-03-24T06:46:47;27.17;;;24.48;;
22881;SDS011;11608;50.894;5.296;2023-03-24T06:49:13;26.27;;;23.70;;
22881;SDS011;11608;50.894;5.296;2023-03-24T06:51:42;25.50;;;23.13;;
22881;SDS011;11608;50.894;5.296;2023-03-24T06:54:08;25.60;;;23.00;;
22881;SDS011;11608;50.894;5.296;2023-03-24T06:56:38;26.02;;;23.30;;
22881;SDS011;11608;50.894;5.296;2023-03-24T06:59:10;24.88;;;22.92;;
22881;SDS011;11608;50.894;5.296;2023-03-24T07:01:38;25.65;;;23.33;;
22881;SDS011;11608;50.894;5.296;2023-03-24T07:04:04;26.50;;;23.80;;
22881;SDS011;11608;50.894;5.296;2023-03-24T07:06:33;27.92;;;25.17;;
22881;SDS011;11608;50.894;5.296;2023-03-24T07:08:59;26.00;;;23.52;;
22881;SDS011;11608;50.894;5.296;2023-03-24T07:11:25;26.92;;;24.55;;
22881;SDS011;11608;50.894;5.296;2023-03-24T07:13:52;25.98;;;23.27;;
22881;SDS011;11608;50.894;5.296;2023-03-24T07:16:18;25.67;;;23.23;;
22881;SDS011;11608;50.894;5.296;2023-03-24T07:18:46;26.13;;;23.75;;
22881;SDS011;11608;50.894;5.296;2023-03-24T07:21:15;26.13;;;23.58;;
22881;SDS011;11608;50.894;5.296;2023-03-24T07:23:42;25.40;;;23.00;;
22881;SDS011;11608;50.894;5.296;2023-03-24T07:26:08;25.13;;;22.45;;
22881;SDS011;11608;50.894;5.296;2023-03-24T07:28:36;25.30;;;22.90;;
22881;SDS011;11608;50.894;5.296;2023-03-24T07:31:05;25.15;;;22.50;;
22881;SDS011;11608;50.894;5.296;2023-03-24T07:33:34;27.60;;;23.45;;
22881;SDS011;11608;50.894;5.296;2023-03-24T07:36:08;26.77;;;23.95;;
22881;SDS011;11608;50.894;5.296;2023-03-24T07:38:37;26.45;;;23.05;;
22881;SDS011;11608;50.894;5.296;2023-03-24T07:41:05;26.52;;;23.92;;
22881;SDS011;11608;50.894;5.296;2023-03-24T07:43:31;26.45;;;23.85;;
22881;SDS011;11608;50.894;5.296;2023-03-24T07:46:00;27.67;;;24.05;;
22881;SDS011;11608;50.894;5.296;2023-03-24T07:48:28;27.50;;;23.60;;
22881;SDS011;11608;50.894;5.296;2023-03-24T07:50:54;25.35;;;22.80;;
22881;SDS011;11608;50.894;5.296;2023-03-24T07:53:21;25.33;;;22.63;;
22881;SDS011;11608;50.894;5.296;2023-03-24T07:55:47;24.77;;;22.23;;
22881;SDS011;11608;50.894;5.296;2023-03-24T07:58:16;25.55;;;22.75;;
22881;SDS011;11608;50.894;5.296;2023-03-24T08:00:47;25.42;;;22.80;;
22881;SDS011;11608;50.894;5.296;2023-03-24T08:03:13;29.48;;;22.75;;
22881;SDS011;11608;50.894;5.296;2023-03-24T08:05:42;24.75;;;22.35;;
22881;SDS011;11608;50.894;5.296;2023-03-24T08:08:11;24.65;;;22.25;;
22881;SDS011;11608;50.894;5.296;2023-03-24T08:10:37;24.50;;;22.20;;
22881;SDS011;11608;50.894;5.296;2023-03-24T08:13:03;25.63;;;22.73;;
22881;SDS011;11608;50.894;5.296;2023-03-24T08:15:34;25.50;;;23.08;;
22881;SDS011;11608;50.894;5.296;2023-03-24T08:18:12;25.40;;;23.08;;
22881;SDS011;11608;50.894;5.296;2023-03-24T08:20:41;26.17;;;23.75;;
22881;SDS011;11608;50.894;5.296;2023-03-24T08:23:09;26.42;;;23.95;;
22881;SDS011;11608;50.894;5.296;2023-03-24T08:25:35;26.20;;;24.00;;
22881;SDS011;11608;50.894;5.296;2023-03-24T08:28:06;25.70;;;23.42;;
22881;SDS011;11608;50.894;5.296;2023-03-24T08:30:37;27.20;;;24.48;;
22881;SDS011;11608;50.894;5.296;2023-03-24T08:33:09;25.70;;;23.45;;
22881;SDS011;11608;50.894;5.296;2023-03-24T08:35:35;26.80;;;24.52;;
22881;SDS011;11608;50.894;5.296;2023-03-24T08:38:07;26.35;;;23.63;;
22881;SDS011;11608;50.894;5.296;2023-03-24T08:40:40;25.52;;;23.45;;
22881;SDS011;11608;50.894;5.296;2023-03-24T08:43:07;26.13;;;23.52;;
22881;SDS011;11608;50.894;5.296;2023-03-24T08:45:36;26.80;;;24.33;;
22881;SDS011;11608;50.894;5.296;2023-03-24T08:48:05;27.77;;;23.83;;
22881;SDS011;11608;50.894;5.296;2023-03-24T08:50:35;25.85;;;23.33;;
22881;SDS011;11608;50.894;5.296;2023-03-24T08:53:02;24.10;;;21.90;;
22881;SDS011;11608;50.894;5.296;2023-03-24T08:55:28;26.27;;;24.05;;
22881;SDS011;11608;50.894;5.296;2023-03-24T08:57:54;24.33;;;21.90;;
22881;SDS011;11608;50.894;5.296;2023-03-24T09:00:21;25.75;;;23.23;;
22881;SDS011;11608;50.894;5.296;2023-03-24T09:02:51;25.40;;;23.10;;
22881;SDS011;11608;50.894;5.296;2023-03-24T09:05:23;25.10;;;22.70;;
22881;SDS011;11608;50.894;5.296;2023-03-24T09:07:51;25.38;;;23.00;;
22881;SDS011;11608;50.894;5.296;2023-03-24T09:10:20;24.52;;;22.15;;
22881;SDS011;11608;50.894;5.296;2023-03-24T09:12:46;24.45;;;22.08;;
22881;SDS011;11608;50.894;5.296;2023-03-24T09:15:14;24.27;;;21.80;;
22881;SDS011;11608;50.894;5.296;2023-03-24T09:17:40;24.27;;;21.88;;
22881;SDS011;11608;50.894;5.296;2023-03-24T09:20:10;24.95;;;22.35;;
22881;SDS011;11608;50.894;5.296;2023-03-24T09:22:39;24.02;;;21.77;;
22881;SDS011;11608;50.894;5.296;2023-03-24T09:25:06;23.65;;;21.35;;
22881;SDS011;11608;50.894;5.296;2023-03-24T09:27:32;22.85;;;20.65;;
22881;SDS011;11608;50.894;5.296;2023-03-24T09:30:01;24.20;;;21.75;;
22881;SDS011;11608;50.894;5.296;2023-03-24T09:32:31;24.25;;;21.77;;
22881;SDS011;11608;50.894;5.296;2023-03-24T09:34:58;25.25;;;21.67;;
22881;SDS011;11608;50.894;5.296;2023-03-24T09:37:30;23.38;;;21.13;;
22881;SDS011;11608;50.894;5.296;2023-03-24T09:39:56;28.77;;;21.75;;
22881;SDS011;11608;50.894;5.296;2023-03-24T09:42:24;23.80;;;21.52;;
22881;SDS011;11608;50.894;5.296;2023-03-24T09:44:55;23.98;;;21.65;;
22881;SDS011;11608;50.894;5.296;2023-03-24T09:47:33;23.08;;;20.98;;
22881;SDS011;11608;50.894;5.296;2023-03-24T09:50:02;23.85;;;21.55;;
22881;SDS011;11608;50.894;5.296;2023-03-24T09:52:35;24.10;;;21.63;;
22881;SDS011;11608;50.894;5.296;2023-03-24T09:55:11;23.95;;;21.77;;
22881;SDS011;11608;50.894;5.296;2023-03-24T09:57:45;24.25;;;21.92;;
22881;SDS011;11608;50.894;5.296;2023-03-24T10:02:44;24.23;;;21.98;;
22881;SDS011;11608;50.894;5.296;2023-03-24T10:05:11;24.23;;;21.83;;
22881;SDS011;11608;50.894;5.296;2023-03-24T10:07:51;23.50;;;21.30;;
22881;SDS011;11608;50.894;5.296;2023-03-24T10:10:23;24.10;;;21.98;;
22881;SDS011;11608;50.894;5.296;2023-03-24T10:12:54;24.60;;;22.25;;
22881;SDS011;11608;50.894;5.296;2023-03-24T10:18:22;23.08;;;20.98;;
22881;SDS011;11608;50.894;5.296;2023-03-24T10:20:56;23.40;;;21.35;;
22881;SDS011;11608;50.894;5.296;2023-03-24T10:23:28;23.35;;;21.33;;
22881;SDS011;11608;50.894;5.296;2023-03-24T10:26:08;24.83;;;22.30;;
22881;SDS011;11608;50.894;5.296;2023-03-24T10:28:49;23.95;;;21.52;;
22881;SDS011;11608;50.894;5.296;2023-03-24T10:31:16;23.08;;;20.80;;
22881;SDS011;11608;50.894;5.296;2023-03-24T10:33:45;23.98;;;20.70;;
22881;SDS011;11608;50.894;5.296;2023-03-24T10:36:12;23.33;;;20.92;;
22881;SDS011;11608;50.894;5.296;2023-03-24T10:38:41;23.63;;;21.48;;
22881;SDS011;11608;50.894;5.296;2023-03-24T10:41:20;23.45;;;21.25;;
22881;SDS011;11608;50.894;5.296;2023-03-24T10:43:47;24.02;;;21.58;;
22881;SDS011;11608;50.894;5.296;2023-03-24T10:46:17;23.33;;;21.23;;
22881;SDS011;11608;50.894;5.296;2023-03-24T10:48:50;24.02;;;21.58;;
22881;SDS011;11608;50.894;5.296;2023-03-24T10:51:20;22.65;;;20.38;;
22881;SDS011;11608;50.894;5.296;2023-03-24T10:53:48;23.50;;;20.92;;
22881;SDS011;11608;50.894;5.296;2023-03-24T10:56:20;24.63;;;22.10;;
22881;SDS011;11608;50.894;5.296;2023-03-24T10:59:05;22.50;;;20.38;;
22881;SDS011;11608;50.894;5.296;2023-03-24T11:01:42;23.42;;;21.17;;
22881;SDS011;11608;50.894;5.296;2023-03-24T11:04:08;22.98;;;20.55;;
22881;SDS011;11608;50.894;5.296;2023-03-24T11:07:00;25.70;;;21.08;;
22881;SDS011;11608;50.894;5.296;2023-03-24T11:09:28;23.58;;;21.02;;
22881;SDS011;11608;50.894;5.296;2023-03-24T11:11:56;22.27;;;20.17;;
22881;SDS011;11608;50.894;5.296;2023-03-24T11:14:34;22.40;;;20.20;;
22881;SDS011;11608;50.894;5.296;2023-03-24T11:17:09;22.13;;;20.10;;
22881;SDS011;11608;50.894;5.296;2023-03-24T11:19:49;23.10;;;20.75;;
22881;SDS011;11608;50.894;5.296;2023-03-24T11:22:16;23.38;;;20.73;;
22881;SDS011;11608;50.894;5.296;2023-03-24T11:24:47;22.13;;;19.98;;
22881;SDS011;11608;50.894;5.296;2023-03-24T11:27:16;22.48;;;20.17;;
22881;SDS011;11608;50.894;5.296;2023-03-24T11:29:47;22.80;;;20.38;;
22881;SDS011;11608;50.894;5.296;2023-03-24T11:32:23;22.15;;;20.02;;
22881;SDS011;11608;50.894;5.296;2023-03-24T11:34:58;22.13;;;20.08;;
22881;SDS011;11608;50.894;5.296;2023-03-24T11:37:27;22.48;;;20.02;;
22881;SDS011;11608;50.894;5.296;2023-03-24T11:42:42;21.65;;;19.63;;
22881;SDS011;11608;50.894;5.296;2023-03-24T11:45:24;22.50;;;20.42;;
22881;SDS011;11608;50.894;5.296;2023-03-24T11:47:54;22.25;;;19.95;;
22881;SDS011;11608;50.894;5.296;2023-03-24T11:50:26;21.08;;;19.05;;
22881;SDS011;11608;50.894;5.296;2023-03-24T11:55:31;22.70;;;20.65;;
22881;SDS011;11608;50.894;5.296;2023-03-24T12:08:39;22.33;;;19.85;;
22881;SDS011;11608;50.894;5.296;2023-03-24T12:11:16;22.38;;;20.52;;
22881;SDS011;11608;50.894;5.296;2023-03-24T12:13:53;23.30;;;20.90;;
22881;SDS011;11608;50.894;5.296;2023-03-24T12:16:30;22.85;;;20.58;;
22881;SDS011;11608;50.894;5.296;2023-03-24T12:19:18;21.85;;;19.67;;
22881;SDS011;11608;50.894;5.296;2023-03-24T12:27:00;21.77;;;19.67;;
22881;SDS011;11608;50.894;5.296;2023-03-24T12:32:03;21.63;;;19.65;;
22881;SDS011;11608;50.894;5.296;2023-03-24T12:37:44;22.45;;;20.27;;
22881;SDS011;11608;50.894;5.296;2023-03-24T12:45:55;21.58;;;19.85;;
22881;SDS011;11608;50.894;5.296;2023-03-24T12:48:44;22.10;;;20.00;;
22881;SDS011;11608;50.894;5.296;2023-03-24T12:51:21;22.00;;;20.08;;
22881;SDS011;11608;50.894;5.296;2023-03-24T12:54:00;21.40;;;19.48;;
22881;SDS011;11608;50.894;5.296;2023-03-24T12:56:30;22.73;;;20.55;;
22881;SDS011;11608;50.894;5.296;2023-03-24T12:59:02;22.48;;;20.42;;
22881;SDS011;11608;50.894;5.296;2023-03-24T13:01:32;23.30;;;21.38;;
22881;SDS011;11608;50.894;5.296;2023-03-24T13:06:32;23.67;;;21.75;;
22881;SDS011;11608;50.894;5.296;2023-03-24T13:11:32;23.40;;;21.30;;
22881;SDS011;11608;50.894;5.296;2023-03-24T13:14:00;23.08;;;20.88;;
22881;SDS011;11608;50.894;5.296;2023-03-24T13:16:41;22.90;;;20.70;;
22881;SDS011;11608;50.894;5.296;2023-03-24T13:19:12;23.20;;;20.98;;
22881;SDS011;11608;50.894;5.296;2023-03-24T13:21:39;22.45;;;20.60;;
22881;SDS011;11608;50.894;5.296;2023-03-24T13:24:06;23.63;;;21.63;;
22881;SDS011;11608;50.894;5.296;2023-03-24T13:26:46;23.00;;;20.98;;
22881;SDS011;11608;50.894;5.296;2023-03-24T13:29:27;23.55;;;21.27;;
22881;SDS011;11608;50.894;5.296;2023-03-24T13:34:37;22.75;;;20.85;;
22881;SDS011;11608;50.894;5.296;2023-03-24T13:37:04;22.58;;;20.45;;
22881;SDS011;11608;50.894;5.296;2023-03-24T13:39:34;22.70;;;20.80;;
22881;SDS011;11608;50.894;5.296;2023-03-24T13:42:01;23.00;;;21.20;;
22881;SDS011;11608;50.894;5.296;2023-03-24T13:44:38;22.75;;;20.65;;
22881;SDS011;11608;50.894;5.296;2023-03-24T13:47:07;22.30;;;20.48;;
22881;SDS011;11608;50.894;5.296;2023-03-24T13:49:35;23.35;;;21.63;;
22881;SDS011;11608;50.894;5.296;2023-03-24T13:52:04;22.10;;;20.10;;
22881;SDS011;11608;50.894;5.296;2023-03-24T13:54:33;22.33;;;20.33;;
22881;SDS011;11608;50.894;5.296;2023-03-24T13:59:41;22.10;;;20.00;;
22881;SDS011;11608;50.894;5.296;2023-03-24T14:05:05;23.17;;;20.83;;
22881;SDS011;11608;50.894;5.296;2023-03-24T14:10:26;22.63;;;20.35;;
22881;SDS011;11608;50.894;5.296;2023-03-24T14:15:40;23.50;;;21.10;;
22881;SDS011;11608;50.894;5.296;2023-03-24T14:32:02;25.67;;;23.67;;
22881;SDS011;11608;50.894;5.296;2023-03-24T14:34:31;25.70;;;23.77;;
22881;SDS011;11608;50.894;5.296;2023-03-24T14:37:01;25.58;;;23.67;;
22881;SDS011;11608;50.894;5.296;2023-03-24T14:50:59;25.40;;;23.30;;
22881;SDS011;11608;50.894;5.296;2023-03-24T14:56:35;24.45;;;22.75;;
22881;SDS011;11608;50.894;5.296;2023-03-24T14:59:49;24.75;;;22.95;;
22881;SDS011;11608;50.894;5.296;2023-03-24T15:01:50;25.40;;;23.50;;
22881;SDS011;11608;50.894;5.296;2023-03-24T15:04:22;25.58;;;23.67;;
22881;SDS011;11608;50.894;5.296;2023-03-24T15:06:50;24.90;;;23.10;;
22881;SDS011;11608;50.894;5.296;2023-03-24T15:09:16;24.63;;;22.83;;
22881;SDS011;11608;50.894;5.296;2023-03-24T15:11:43;24.90;;;23.05;;
22881;SDS011;11608;50.894;5.296;2023-03-24T15:17:05;24.95;;;23.05;;
22881;SDS011;11608;50.894;5.296;2023-03-24T15:19:36;24.20;;;22.35;;
22881;SDS011;11608;50.894;5.296;2023-03-24T15:22:04;24.75;;;22.70;;
22881;SDS011;11608;50.894;5.296;2023-03-24T15:24:33;23.55;;;21.75;;
22881;SDS011;11608;50.894;5.296;2023-03-24T15:29:39;23.15;;;21.48;;
22881;SDS011;11608;50.894;5.296;2023-03-24T15:32:05;25.10;;;23.05;;
22881;SDS011;11608;50.894;5.296;2023-03-24T15:34:35;24.20;;;22.38;;
22881;SDS011;11608;50.894;5.296;2023-03-24T15:37:04;24.42;;;22.52;;
22881;SDS011;11608;50.894;5.296;2023-03-24T15:39:35;25.00;;;23.00;;
22881;SDS011;11608;50.894;5.296;2023-03-24T15:42:12;24.77;;;22.88;;
22881;SDS011;11608;50.894;5.296;2023-03-24T15:44:40;24.58;;;22.77;;
22881;SDS011;11608;50.894;5.296;2023-03-24T15:47:18;24.52;;;22.48;;
22881;SDS011;11608;50.894;5.296;2023-03-24T15:49:55;23.42;;;21.52;;
22881;SDS011;11608;50.894;5.296;2023-03-24T15:52:22;24.83;;;22.67;;
22881;SDS011;11608;50.894;5.296;2023-03-24T15:54:52;24.35;;;22.35;;
22881;SDS011;11608;50.894;5.296;2023-03-24T15:57:20;24.85;;;22.85;;
22881;SDS011;11608;50.894;5.296;2023-03-24T16:02:32;23.63;;;21.58;;
22881;SDS011;11608;50.894;5.296;2023-03-24T16:05:03;24.75;;;22.73;;
22881;SDS011;11608;50.894;5.296;2023-03-24T16:07:32;24.98;;;22.92;;
22881;SDS011;11608;50.894;5.296;2023-03-24T16:10:05;24.73;;;22.65;;
22881;SDS011;11608;50.894;5.296;2023-03-24T16:12:35;25.52;;;23.73;;
22881;SDS011;11608;50.894;5.296;2023-03-24T16:15:11;24.40;;;22.52;;
22881;SDS011;11608;50.894;5.296;2023-03-24T16:17:37;24.60;;;22.67;;
22881;SDS011;11608;50.894;5.296;2023-03-24T16:20:08;23.65;;;21.88;;
22881;SDS011;11608;50.894;5.296;2023-03-24T16:22:47;23.55;;;21.67;;
22881;SDS011;11608;50.894;5.296;2023-03-24T16:25:13;23.50;;;21.40;;
22881;SDS011;11608;50.894;5.296;2023-03-24T16:27:40;23.52;;;21.63;;
22881;SDS011;11608;50.894;5.296;2023-03-24T16:30:24;22.77;;;21.10;;
22881;SDS011;11608;50.894;5.296;2023-03-24T16:33:14;22.73;;;20.98;;
22881;SDS011;11608;50.894;5.296;2023-03-24T16:35:40;22.75;;;20.90;;
22881;SDS011;11608;50.894;5.296;2023-03-24T16:38:08;23.15;;;21.25;;
22881;SDS011;11608;50.894;5.296;2023-03-24T16:40:43;22.20;;;20.35;;
22881;SDS011;11608;50.894;5.296;2023-03-24T16:43:15;22.63;;;20.58;;
22881;SDS011;11608;50.894;5.296;2023-03-24T16:45:49;22.48;;;20.77;;
22881;SDS011;11608;50.894;5.296;2023-03-24T16:48:16;22.60;;;20.80;;
22881;SDS011;11608;50.894;5.296;2023-03-24T16:50:46;22.95;;;21.13;;
22881;SDS011;11608;50.894;5.296;2023-03-24T16:53:16;22.92;;;21.05;;
22881;SDS011;11608;50.894;5.296;2023-03-24T16:55:43;22.95;;;20.95;;
22881;SDS011;11608;50.894;5.296;2023-03-24T16:58:13;22.30;;;20.50;;
22881;SDS011;11608;50.894;5.296;2023-03-24T17:00:40;22.33;;;20.60;;
22881;SDS011;11608;50.894;5.296;2023-03-24T17:03:08;21.80;;;20.05;;
22881;SDS011;11608;50.894;5.296;2023-03-24T17:05:55;22.73;;;20.60;;